Time;durP1;ratioP1;P1;durP2;ratioP2;P2;SDS_P1;SDS_P2;PMS_P1;PMS_P2;Temp;Humidity;BMP_temperature;BMP_pressure;BME280_temperature;BME280_humidity;BME280_pressure;Samples;Min_cycle;Max_cycle;Signal;HPM_P1;HPM_P2
2022/09/02 00:00:19;;;;;;;;;;;;;;;22.21;63.03;97141.27;180353;293;664514;-45
2022/09/02 00:01:22;;;;;;;;;;;;;;;22.20;63.02;97141.84;180259;293;661728;-43
2022/09/02 00:02:24;;;;;;;;;;;;;;;22.18;63.02;97137.23;180078;293;662534;-44
2022/09/02 00:03:26;;;;;;;;;;;;;;;22.17;63.03;97138.95;180366;293;661681;-44
2022/09/02 00:04:28;;;;;;;;;;;;;;;22.17;63.02;97139.76;179778;293;661636;-45
2022/09/02 00:05:30;;;;;;;;;;;;;;;22.17;63.04;97138.95;179065;295;659746;-43
2022/09/02 00:06:32;;;;;;;;;;;;;;;22.15;63.05;97142.63;180426;293;662949;-46
2022/09/02 00:07:34;;;;;;;;;;;;;;;22.14;63.06;97134.11;180140;293;663884;-44
2022/09/02 00:08:36;;;;;;;;;;;;;;;22.15;63.07;97141.24;180228;293;661433;-45
2022/09/02 00:09:39;;;;;;;;;;;;;;;22.12;63.09;97140.54;179919;293;662587;-46
2022/09/02 00:10:41;;;;;;;;;;;;;;;22.12;63.09;97135.02;180312;293;660085;-46
2022/09/02 00:11:43;;;;;;;;;;;;;;;22.12;63.10;97139.16;180231;293;664337;-44
2022/09/02 00:12:45;;;;;;;;;;;;;;;22.12;63.08;97140.54;180413;293;662577;-44
2022/09/02 00:13:47;;;;;;;;;;;;;;;22.11;63.09;97139.70;180359;293;663815;-45
2022/09/02 00:14:49;;;;;;;;;;;;;;;22.11;63.05;97134.75;180335;292;660736;-46
2022/09/02 00:15:51;;;;;;;;;;;;;;;22.10;63.08;97138.08;179793;293;661902;-45
2022/09/02 00:16:53;;;;;;;;;;;;;;;22.10;63.09;97134.52;180152;293;664576;-44
2022/09/02 00:17:55;;;;;;;;;;;;;;;22.09;63.09;97135.66;180267;293;661771;-51
2022/09/02 00:18:57;;;;;;;;;;;;;;;22.07;63.11;97133.81;179569;293;662884;-45
2022/09/02 00:19:58;;;;;;;;;;;;;;;22.06;63.10;97137.69;179821;293;662617;-45
2022/09/02 00:21:00;;;;;;;;;;;;;;;22.05;63.12;97133.31;180597;292;662692;-47
2022/09/02 00:22:02;;;;;;;;;;;;;;;22.06;63.13;97134.92;180429;292;663819;-46
2022/09/02 00:23:29;;;;;;;;;;;;;;;22.06;63.16;97137.15;187094;285;528259;-48
2022/09/02 00:24:31;;;;;;;;;;;;;;;22.04;63.14;97144.13;182360;288;661980;-47
2022/09/02 00:25:32;;;;;;;;;;;;;;;22.04;63.13;97133.08;182500;289;664433;-49
2022/09/02 00:26:34;;;;;;;;;;;;;;;22.02;63.10;97129.85;182131;290;661699;-45
2022/09/02 00:27:36;;;;;;;;;;;;;;;21.99;63.10;97136.02;181473;291;662722;-48
2022/09/02 00:28:38;;;;;;;;;;;;;;;21.98;63.12;97134.40;181133;291;663882;-49
2022/09/02 00:29:40;;;;;;;;;;;;;;;21.94;63.15;97130.94;181914;290;662572;-49
2022/09/02 00:30:42;;;;;;;;;;;;;;;21.93;63.17;97138.17;182497;289;661499;-47
2022/09/02 00:31:44;;;;;;;;;;;;;;;21.90;63.20;97136.89;181576;290;660864;-49
2022/09/02 00:32:46;;;;;;;;;;;;;;;21.88;63.23;97132.25;181519;290;663792;-47
2022/09/02 00:33:50;;;;;;;;;;;;;;;21.85;63.25;97137.06;181021;291;663845;-48
2022/09/02 00:34:52;;;;;;;;;;;;;;;21.84;63.27;97138.22;181898;290;664575;-47
2022/09/02 00:35:54;;;;;;;;;;;;;;;21.81;63.26;97130.61;181990;291;664549;-52
2022/09/02 00:36:56;;;;;;;;;;;;;;;21.81;63.29;97129.23;182402;290;663578;-48
2022/09/02 00:37:58;;;;;;;;;;;;;;;21.79;63.30;97127.34;181889;291;662317;-50
2022/09/02 00:39:00;;;;;;;;;;;;;;;21.80;63.33;97128.99;182382;290;661511;-46
2022/09/02 00:40:02;;;;;;;;;;;;;;;21.78;63.34;97127.11;181278;291;662177;-46
2022/09/02 00:41:04;;;;;;;;;;;;;;;21.77;63.33;97128.25;182429;290;662377;-47
2022/09/02 00:42:06;;;;;;;;;;;;;;;21.78;63.37;97127.69;182011;291;661412;-46
2022/09/02 00:43:08;;;;;;;;;;;;;;;21.78;63.40;97125.73;182371;290;661863;-51
2022/09/02 00:44:10;;;;;;;;;;;;;;;21.77;63.44;97124.12;181608;291;663107;-43
2022/09/02 00:45:13;;;;;;;;;;;;;;;21.79;63.47;97132.06;182440;290;663460;-46
2022/09/02 00:46:15;;;;;;;;;;;;;;;21.81;63.46;97131.19;182010;291;662441;-43
2022/09/02 00:47:17;;;;;;;;;;;;;;;21.82;63.48;97125.90;182438;290;663367;-45
2022/09/02 00:48:19;;;;;;;;;;;;;;;21.83;63.41;97126.13;181769;290;661302;-43
2022/09/02 00:49:24;;;;;;;;;;;;;;;21.85;63.41;97127.41;182175;290;661211;-46
2022/09/02 00:50:26;;;;;;;;;;;;;;;21.87;63.35;97128.45;181939;291;662194;-44
2022/09/02 00:51:28;;;;;;;;;;;;;;;21.88;63.34;97128.11;182454;290;663654;-46
2022/09/02 00:52:29;;;;;;;;;;;;;;;21.90;63.34;97121.72;181980;291;662287;-43
2022/09/02 00:53:31;;;;;;;;;;;;;;;21.92;63.30;97122.19;182479;290;661275;-42
2022/09/02 00:54:33;;;;;;;;;;;;;;;21.92;63.27;97122.19;181431;291;662235;-44
2022/09/02 00:55:35;;;;;;;;;;;;;;;21.94;63.26;97129.56;182400;290;662653;-44
2022/09/02 00:56:37;;;;;;;;;;;;;;;21.94;63.23;97119.90;182026;291;662748;-46
2022/09/02 00:57:40;;;;;;;;;;;;;;;21.97;63.21;97117.61;182450;290;662743;-44
2022/09/02 00:58:42;;;;;;;;;;;;;;;21.98;63.20;97123.36;181813;291;663924;-42
2022/09/02 00:59:44;;;;;;;;;;;;;;;21.99;63.18;97127.73;182503;290;662594;-44
2022/09/02 01:00:46;;;;;;;;;;;;;;;21.99;63.17;97116.70;181959;291;660672;-42
2022/09/02 01:01:48;;;;;;;;;;;;;;;22.00;63.14;97121.07;182424;290;662388;-46
2022/09/02 01:02:50;;;;;;;;;;;;;;;22.01;63.13;97117.16;181605;291;663749;-44
2022/09/02 01:03:52;;;;;;;;;;;;;;;22.01;63.10;97115.78;182427;290;662497;-42
2022/09/02 01:04:55;;;;;;;;;;;;;;;22.01;63.06;97120.77;182007;291;666445;-47
2022/09/02 01:05:57;;;;;;;;;;;;;;;22.02;63.02;97122.95;182418;290;664028;-48
2022/09/02 01:07:02;;;;;;;;;;;;;;;22.02;63.03;97121.57;180827;291;629396;-45
2022/09/02 01:08:06;;;;;;;;;;;;;;;22.02;63.03;97118.81;182091;290;661644;-44
2022/09/02 01:09:07;;;;;;;;;;;;;;;22.02;63.03;97117.43;180951;291;662193;-47
2022/09/02 01:10:09;;;;;;;;;;;;;;;22.02;63.02;97119.62;180652;291;661634;-44
2022/09/02 01:11:11;;;;;;;;;;;;;;;22.02;63.01;97116.86;182441;290;663051;-45
2022/09/02 01:12:15;;;;;;;;;;;;;;;22.02;62.99;97118.23;181639;291;663062;-45
2022/09/02 01:13:16;;;;;;;;;;;;;;;22.02;62.97;97114.09;182424;290;663898;-43
2022/09/02 01:14:18;;;;;;;;;;;;;;;22.03;62.96;97119.05;181859;291;663581;-44
2022/09/02 01:15:20;;;;;;;;;;;;;;;22.04;62.94;97117.90;182394;290;661213;-44
2022/09/02 01:16:23;;;;;;;;;;;;;;;22.00;62.92;97112.22;181911;291;662800;-46
2022/09/02 01:17:25;;;;;;;;;;;;;;;22.02;62.94;97113.29;181900;290;661228;-42
2022/09/02 01:18:30;;;;;;;;;;;;;;;22.01;62.88;97111.64;181886;291;663343;-44
2022/09/02 01:19:31;;;;;;;;;;;;;;;22.02;62.90;97116.05;181613;291;638412;-42
2022/09/02 01:20:33;;;;;;;;;;;;;;;22.01;62.90;97118.55;181614;291;662389;-45
2022/09/02 01:21:35;;;;;;;;;;;;;;;22.01;62.89;97117.16;181153;291;660494;-44
2022/09/02 01:22:37;;;;;;;;;;;;;;;22.00;62.89;97111.41;181995;290;664052;-46
2022/09/02 01:23:39;;;;;;;;;;;;;;;22.00;62.88;97119.69;181581;291;662732;-45
2022/09/02 01:24:41;;;;;;;;;;;;;;;21.99;62.88;97114.75;181771;291;662679;-46
2022/09/02 01:25:43;;;;;;;;;;;;;;;21.99;62.87;97117.50;180800;291;662937;-44
2022/09/02 01:26:45;;;;;;;;;;;;;;;21.98;62.87;97114.51;181798;291;661630;-46
2022/09/02 01:27:47;;;;;;;;;;;;;;;21.99;62.85;97113.94;181402;291;661930;-47
2022/09/02 01:28:49;;;;;;;;;;;;;;;21.98;62.83;97111.75;181584;291;663000;-44
2022/09/02 01:29:51;;;;;;;;;;;;;;;21.99;62.84;97113.94;181624;291;661646;-48
2022/09/02 01:30:53;;;;;;;;;;;;;;;21.98;62.83;97109.56;181610;291;662710;-48
2022/09/02 01:31:54;;;;;;;;;;;;;;;21.97;62.83;97112.89;181833;291;662867;-49
2022/09/02 01:32:56;;;;;;;;;;;;;;;21.98;62.81;97109.56;181791;291;664025;-44
2022/09/02 01:33:58;;;;;;;;;;;;;;;21.96;62.82;97111.28;181859;291;661678;-45
2022/09/02 01:35:00;;;;;;;;;;;;;;;21.95;62.80;97109.66;181787;291;663707;-44
2022/09/02 01:36:03;;;;;;;;;;;;;;;21.94;62.81;97110.23;181539;291;663668;-45
2022/09/02 01:37:05;;;;;;;;;;;;;;;21.95;62.81;97111.05;181353;291;662419;-43
2022/09/02 01:38:07;;;;;;;;;;;;;;;21.93;62.82;97110.00;181639;291;663479;-46
2022/09/02 01:39:10;;;;;;;;;;;;;;;21.93;62.82;97111.95;181251;291;662801;-44
2022/09/02 01:40:12;;;;;;;;;;;;;;;21.92;62.80;97105.63;181468;291;664585;-45
2022/09/02 01:41:14;;;;;;;;;;;;;;;21.92;62.82;97109.77;181725;291;661518;-48
2022/09/02 01:42:16;;;;;;;;;;;;;;;21.90;62.80;97107.92;181859;291;661798;-45
2022/09/02 01:43:18;;;;;;;;;;;;;;;21.90;62.81;97103.78;181800;291;664004;-44
2022/09/02 01:44:20;;;;;;;;;;;;;;;21.89;62.80;97106.27;181791;291;663692;-43
2022/09/02 01:45:21;;;;;;;;;;;;;;;21.89;62.81;97106.27;181406;291;662416;-43
2022/09/02 01:46:23;;;;;;;;;;;;;;;21.88;62.77;97108.80;181662;291;662418;-51
2022/09/02 01:47:25;;;;;;;;;;;;;;;21.87;62.79;97107.76;181738;291;664118;-43
2022/09/02 01:48:27;;;;;;;;;;;;;;;21.86;62.79;97114.42;181422;291;661991;-45
2022/09/02 01:49:29;;;;;;;;;;;;;;;21.86;62.79;97111.09;181710;291;660468;-44
2022/09/02 01:50:31;;;;;;;;;;;;;;;21.87;62.80;97113.28;181307;291;663401;-43
2022/09/02 01:51:33;;;;;;;;;;;;;;;21.84;62.78;97107.86;181641;291;663589;-44
2022/09/02 01:52:35;;;;;;;;;;;;;;;21.85;62.80;97103.95;181749;291;660954;-44
2022/09/02 01:53:37;;;;;;;;;;;;;;;21.85;62.81;97106.72;181042;291;662357;-44
2022/09/02 01:54:39;;;;;;;;;;;;;;;21.83;62.83;97106.25;181652;291;662699;-44
2022/09/02 01:55:41;;;;;;;;;;;;;;;21.83;62.81;97104.87;181798;291;661366;-46
2022/09/02 01:56:44;;;;;;;;;;;;;;;21.82;62.81;97107.39;181882;291;661394;-45
2022/09/02 01:57:46;;;;;;;;;;;;;;;21.80;62.80;97101.41;181496;291;661588;-43
2022/09/02 01:58:48;;;;;;;;;;;;;;;21.80;62.81;97097.27;181363;291;662458;-47
2022/09/02 01:59:50;;;;;;;;;;;;;;;21.80;62.81;97098.64;181808;291;662004;-44
2022/09/02 02:00:52;;;;;;;;;;;;;;;21.80;62.81;97101.41;180882;291;664145;-44
2022/09/02 02:01:54;;;;;;;;;;;;;;;21.79;62.83;97098.38;181903;291;664697;-47
2022/09/02 02:02:56;;;;;;;;;;;;;;;21.78;62.85;97097.34;181717;291;661030;-45
2022/09/02 02:03:58;;;;;;;;;;;;;;;21.78;62.83;97106.42;181822;291;662450;-44
2022/09/02 02:05:00;;;;;;;;;;;;;;;21.77;62.85;97098.48;181748;291;663809;-43
2022/09/02 02:06:02;;;;;;;;;;;;;;;21.76;62.85;97100.44;181800;291;663174;-45
2022/09/02 02:07:04;;;;;;;;;;;;;;;21.76;62.85;97091.35;181844;291;663085;-44
2022/09/02 02:08:06;;;;;;;;;;;;;;;21.75;62.85;97093.30;181629;291;661985;-43
2022/09/02 02:09:08;;;;;;;;;;;;;;;21.76;62.86;97089.97;181743;291;661426;-51
2022/09/02 02:10:10;;;;;;;;;;;;;;;21.74;62.88;97096.40;181844;291;664238;-44
2022/09/02 02:11:12;;;;;;;;;;;;;;;21.73;62.87;97101.11;181815;291;663935;-46
2022/09/02 02:12:14;;;;;;;;;;;;;;;21.73;62.89;97095.59;181810;291;662046;-48
2022/09/02 02:13:16;;;;;;;;;;;;;;;21.71;62.91;97095.13;181778;291;662700;-43
2022/09/02 02:14:18;;;;;;;;;;;;;;;21.72;62.88;97086.27;181119;291;662802;-47
2022/09/02 02:15:20;;;;;;;;;;;;;;;21.72;62.92;97093.17;181396;291;664236;-44
2022/09/02 02:16:22;;;;;;;;;;;;;;;21.69;62.90;97089.10;181807;291;662028;-43
2022/09/02 02:17:24;;;;;;;;;;;;;;;21.70;62.92;97093.50;181835;291;663514;-46
2022/09/02 02:18:26;;;;;;;;;;;;;;;21.69;62.92;97091.86;181803;291;663823;-44
2022/09/02 02:19:28;;;;;;;;;;;;;;;21.69;62.94;97089.67;181708;291;661830;-50
2022/09/02 02:20:29;;;;;;;;;;;;;;;21.70;62.96;97090.75;181766;291;661719;-43
2022/09/02 02:21:31;;;;;;;;;;;;;;;21.69;62.94;97090.48;181831;291;662784;-44
2022/09/02 02:22:33;;;;;;;;;;;;;;;21.69;62.95;97093.81;181620;291;662890;-43
2022/09/02 02:23:35;;;;;;;;;;;;;;;21.68;62.98;97087.48;180799;291;661700;-43
2022/09/02 02:24:38;;;;;;;;;;;;;;;21.68;62.99;97081.16;181274;291;662713;-43
2022/09/02 02:25:40;;;;;;;;;;;;;;;21.66;62.99;97091.95;181361;291;660659;-43
2022/09/02 02:26:42;;;;;;;;;;;;;;;21.66;63.00;97089.77;181370;291;661614;-43
2022/09/02 02:27:44;;;;;;;;;;;;;;;21.66;63.00;97081.50;181182;291;663844;-47
2022/09/02 02:28:46;;;;;;;;;;;;;;;21.65;63.01;97090.34;181247;291;662025;-45
2022/09/02 02:29:48;;;;;;;;;;;;;;;21.65;63.03;97090.34;180871;291;664370;-44
2022/09/02 02:30:50;;;;;;;;;;;;;;;21.64;63.02;97085.16;181412;291;662835;-44
2022/09/02 02:31:52;;;;;;;;;;;;;;;21.64;63.05;97090.11;181364;291;662799;-43
2022/09/02 02:32:54;;;;;;;;;;;;;;;21.65;63.04;97095.05;181397;291;663333;-46
2022/09/02 02:33:56;;;;;;;;;;;;;;;21.64;63.05;97087.35;181367;291;663551;-46
2022/09/02 02:34:58;;;;;;;;;;;;;;;21.64;63.05;97094.25;181366;291;663008;-45
2022/09/02 02:36:00;;;;;;;;;;;;;;;21.64;63.04;97090.11;181240;291;661668;-45
2022/09/02 02:37:02;;;;;;;;;;;;;;;21.64;63.07;97090.69;180943;291;662180;-46
2022/09/02 02:38:04;;;;;;;;;;;;;;;21.63;63.06;97086.31;181152;291;663314;-46
2022/09/02 02:39:06;;;;;;;;;;;;;;;21.62;63.07;97088.27;181212;291;662132;-43
2022/09/02 02:40:09;;;;;;;;;;;;;;;21.62;63.09;97077.23;181348;291;662584;-48
2022/09/02 02:41:10;;;;;;;;;;;;;;;21.62;63.06;97088.84;180867;291;660212;-44
2022/09/02 02:42:12;;;;;;;;;;;;;;;21.62;63.06;97084.13;181368;291;662931;-45
2022/09/02 02:43:14;;;;;;;;;;;;;;;21.61;63.09;97082.51;180952;291;662752;-44
2022/09/02 02:44:16;;;;;;;;;;;;;;;21.63;63.09;97082.17;181219;291;662054;-43
2022/09/02 02:45:18;;;;;;;;;;;;;;;21.61;63.11;97081.70;181423;291;662600;-44
2022/09/02 02:46:20;;;;;;;;;;;;;;;21.60;63.12;97085.03;181336;291;662947;-45
2022/09/02 02:47:22;;;;;;;;;;;;;;;21.61;63.10;97083.08;181367;291;662612;-45
2022/09/02 02:48:24;;;;;;;;;;;;;;;21.61;63.15;97087.22;180609;291;662897;-44
2022/09/02 02:49:26;;;;;;;;;;;;;;;21.62;63.14;97084.70;181317;291;662640;-45
2022/09/02 02:50:28;;;;;;;;;;;;;;;21.62;63.12;97083.31;180432;291;664242;-48
2022/09/02 02:51:30;;;;;;;;;;;;;;;21.61;63.12;97080.33;181209;291;661077;-43
2022/09/02 02:52:32;;;;;;;;;;;;;;;21.60;63.14;97077.33;180993;291;663097;-46
2022/09/02 02:53:35;;;;;;;;;;;;;;;21.59;63.15;97077.09;181107;291;662864;-44
2022/09/02 02:54:37;;;;;;;;;;;;;;;21.58;63.16;97074.87;181417;291;664660;-45
2022/09/02 02:55:39;;;;;;;;;;;;;;;21.58;63.16;97077.64;181294;291;661481;-43
2022/09/02 02:56:41;;;;;;;;;;;;;;;21.58;63.13;97071.31;181357;291;660632;-47
2022/09/02 02:57:43;;;;;;;;;;;;;;;21.57;63.11;97067.75;180778;291;662418;-47
2022/09/02 02:58:45;;;;;;;;;;;;;;;21.57;63.14;97068.31;180645;291;660273;-44
2022/09/02 02:59:47;;;;;;;;;;;;;;;21.56;63.13;97076.36;181391;291;659373;-46
2022/09/02 03:00:50;;;;;;;;;;;;;;;21.56;63.14;97073.03;181364;291;663397;-44
2022/09/02 03:01:51;;;;;;;;;;;;;;;21.55;63.13;97077.50;181331;291;661368;-44
2022/09/02 03:02:53;;;;;;;;;;;;;;;21.55;63.14;97080.26;181351;291;663778;-47
2022/09/02 03:03:55;;;;;;;;;;;;;;;21.54;63.14;97080.02;181369;291;662575;-43
2022/09/02 03:04:58;;;;;;;;;;;;;;;21.52;63.14;97073.47;181384;291;662757;-46
2022/09/02 03:06:00;;;;;;;;;;;;;;;21.54;63.14;97084.16;181378;291;661592;-42
2022/09/02 03:07:01;;;;;;;;;;;;;;;21.54;63.14;97081.41;180719;291;664007;-45
2022/09/02 03:08:04;;;;;;;;;;;;;;;21.53;63.14;97077.03;181376;291;663355;-44
2022/09/02 03:09:06;;;;;;;;;;;;;;;21.53;63.14;97082.55;180854;291;662807;-43
2022/09/02 03:10:08;;;;;;;;;;;;;;;21.53;63.12;97081.17;181378;291;659764;-48
2022/09/02 03:11:10;;;;;;;;;;;;;;;21.52;63.12;97083.12;181440;291;662088;-44
2022/09/02 03:12:12;;;;;;;;;;;;;;;21.53;63.11;97082.55;181423;291;663982;-45
2022/09/02 03:13:14;;;;;;;;;;;;;;;21.52;63.11;97079.55;181300;291;662944;-46
2022/09/02 03:14:17;;;;;;;;;;;;;;;21.51;63.11;97077.94;181229;291;662691;-43
2022/09/02 03:15:19;;;;;;;;;;;;;;;21.51;63.09;97080.13;180883;291;663673;-43
2022/09/02 03:16:21;;;;;;;;;;;;;;;21.51;63.09;97075.18;181188;291;662435;-44
2022/09/02 03:17:23;;;;;;;;;;;;;;;21.50;63.09;97072.19;181324;291;662819;-46
2022/09/02 03:18:25;;;;;;;;;;;;;;;21.50;63.09;97074.95;181380;291;662391;-45
2022/09/02 03:19:27;;;;;;;;;;;;;;;21.50;63.08;97073.56;181210;291;663450;-45
2022/09/02 03:20:30;;;;;;;;;;;;;;;21.49;63.08;97079.66;181364;291;661345;-46
2022/09/02 03:21:32;;;;;;;;;;;;;;;21.50;63.07;97074.95;181407;291;663750;-45
2022/09/02 03:22:36;;;;;;;;;;;;;;;21.50;63.05;97077.70;181253;291;662117;-46
2022/09/02 03:23:37;;;;;;;;;;;;;;;21.49;63.07;97076.09;181487;291;632134;-45
2022/09/02 03:24:39;;;;;;;;;;;;;;;21.48;63.07;97074.44;181284;291;660468;-45
2022/09/02 03:25:41;;;;;;;;;;;;;;;21.48;63.06;97068.39;180684;291;662546;-45
2022/09/02 03:26:43;;;;;;;;;;;;;;;21.48;63.05;97070.30;181423;291;662511;-46
2022/09/02 03:27:45;;;;;;;;;;;;;;;21.48;63.05;97068.39;181043;291;662605;-44
2022/09/02 03:28:48;;;;;;;;;;;;;;;21.47;63.06;97071.45;180746;291;661073;-48
2022/09/02 03:29:50;;;;;;;;;;;;;;;21.47;63.05;97069.50;181149;291;663179;-47
2022/09/02 03:30:52;;;;;;;;;;;;;;;21.46;63.07;97059.61;180885;291;661551;-44
2022/09/02 03:31:54;;;;;;;;;;;;;;;21.46;63.07;97063.75;180936;291;664596;-46
2022/09/02 03:32:56;;;;;;;;;;;;;;;21.47;63.07;97065.36;181339;291;663887;-45
2022/09/02 03:33:58;;;;;;;;;;;;;;;21.46;63.08;97067.08;180980;291;660580;-46
2022/09/02 03:35:00;;;;;;;;;;;;;;;21.45;63.07;97064.09;181371;291;660969;-42
2022/09/02 03:36:02;;;;;;;;;;;;;;;21.44;63.07;97061.09;181347;291;662463;-42
2022/09/02 03:37:04;;;;;;;;;;;;;;;21.45;63.06;97059.95;181399;291;663840;-45
2022/09/02 03:38:06;;;;;;;;;;;;;;;21.45;63.08;97063.52;181286;291;661308;-43
2022/09/02 03:39:08;;;;;;;;;;;;;;;21.44;63.11;97061.09;181300;291;662660;-48
2022/09/02 03:40:09;;;;;;;;;;;;;;;21.44;63.08;97066.61;181405;291;661728;-45
2022/09/02 03:41:11;;;;;;;;;;;;;;;21.44;63.11;97064.66;181207;291;663992;-44
2022/09/02 03:42:14;;;;;;;;;;;;;;;21.45;63.12;97066.84;181381;291;662848;-45
2022/09/02 03:43:16;;;;;;;;;;;;;;;21.44;63.11;97063.28;181107;291;663258;-44
2022/09/02 03:44:18;;;;;;;;;;;;;;;21.43;63.08;97064.42;181347;291;663426;-46
2022/09/02 03:45:20;;;;;;;;;;;;;;;21.43;63.08;97061.66;181403;291;661174;-45
2022/09/02 03:46:22;;;;;;;;;;;;;;;21.44;63.08;97062.47;181394;291;664249;-43
2022/09/02 03:47:24;;;;;;;;;;;;;;;21.44;63.07;97066.61;181154;291;662654;-47
2022/09/02 03:48:28;;;;;;;;;;;;;;;21.44;63.08;97063.28;181323;291;660664;-46
2022/09/02 03:49:30;;;;;;;;;;;;;;;21.44;63.06;97061.09;181298;291;663799;-44
2022/09/02 03:50:32;;;;;;;;;;;;;;;21.43;63.06;97063.61;181011;291;660182;-44
2022/09/02 03:51:34;;;;;;;;;;;;;;;21.42;63.07;97063.38;180666;291;662968;-46
2022/09/02 03:52:36;;;;;;;;;;;;;;;21.42;63.06;97059.24;181403;291;662927;-44
2022/09/02 03:53:38;;;;;;;;;;;;;;;21.42;63.07;97066.13;181369;291;662028;-45
2022/09/02 03:54:39;;;;;;;;;;;;;;;21.40;63.08;97058.20;181365;291;661473;-44
2022/09/02 03:55:41;;;;;;;;;;;;;;;21.41;63.08;97064.52;181188;291;661812;-44
2022/09/02 03:56:43;;;;;;;;;;;;;;;21.41;63.08;97064.52;181023;291;663224;-45
2022/09/02 03:57:46;;;;;;;;;;;;;;;21.40;63.09;97069.80;181395;291;661254;-44
2022/09/02 03:58:48;;;;;;;;;;;;;;;21.40;63.08;97057.39;180926;291;663955;-45
2022/09/02 03:59:50;;;;;;;;;;;;;;;21.40;63.09;97067.85;180969;291;664181;-45
2022/09/02 04:00:52;;;;;;;;;;;;;;;21.42;63.07;97067.52;181231;291;661774;-44
2022/09/02 04:01:54;;;;;;;;;;;;;;;21.41;63.08;97065.90;180840;291;662522;-44
2022/09/02 04:02:56;;;;;;;;;;;;;;;21.41;63.07;97070.03;181336;291;661523;-45
2022/09/02 04:03:58;;;;;;;;;;;;;;;21.39;63.10;97062.09;181311;291;663452;-44
2022/09/02 04:05:00;;;;;;;;;;;;;;;21.41;63.09;97065.90;181298;291;661369;-43
2022/09/02 04:06:02;;;;;;;;;;;;;;;21.40;63.10;97063.72;181419;291;661777;-43
2022/09/02 04:07:04;;;;;;;;;;;;;;;21.41;63.08;97060.38;181374;291;663984;-45
2022/09/02 04:08:06;;;;;;;;;;;;;;;21.41;63.09;97067.28;181368;291;662542;-43
2022/09/02 04:09:08;;;;;;;;;;;;;;;21.39;63.07;97068.99;181273;291;661022;-47
2022/09/02 04:10:10;;;;;;;;;;;;;;;21.39;63.07;97065.42;181373;291;661650;-44
2022/09/02 04:11:13;;;;;;;;;;;;;;;21.39;63.08;97070.38;181231;291;660331;-44
2022/09/02 04:12:15;;;;;;;;;;;;;;;21.38;63.10;97066.56;180903;291;662454;-43
2022/09/02 04:13:17;;;;;;;;;;;;;;;21.38;63.08;97070.14;181370;291;659891;-44
2022/09/02 04:14:19;;;;;;;;;;;;;;;21.36;63.08;97063.55;181394;291;663475;-44
2022/09/02 04:15:21;;;;;;;;;;;;;;;21.40;63.09;97068.42;181400;291;662088;-44
2022/09/02 04:16:27;;;;;;;;;;;;;;;21.38;63.09;97072.08;181335;291;661671;-44
2022/09/02 04:17:27;;;;;;;;;;;;;;;21.36;63.09;97066.30;181440;291;631136;-44
2022/09/02 04:18:29;;;;;;;;;;;;;;;21.37;63.08;97072.63;181364;291;661153;-48
2022/09/02 04:19:31;;;;;;;;;;;;;;;21.35;63.08;97068.83;181259;291;661596;-50
2022/09/02 04:20:33;;;;;;;;;;;;;;;21.34;63.08;97064.45;181365;291;664156;-45
2022/09/02 04:21:35;;;;;;;;;;;;;;;21.35;63.09;97067.45;181397;291;662606;-47
2022/09/02 04:22:37;;;;;;;;;;;;;;;21.34;63.07;97065.83;181160;291;664369;-45
2022/09/02 04:23:39;;;;;;;;;;;;;;;21.34;63.07;97067.21;180895;291;661630;-46
2022/09/02 04:24:41;;;;;;;;;;;;;;;21.33;63.07;97066.98;181344;291;661648;-45
2022/09/02 04:25:43;;;;;;;;;;;;;;;21.34;63.07;97068.59;181461;291;663300;-44
2022/09/02 04:26:45;;;;;;;;;;;;;;;21.34;63.08;97067.21;181401;291;661225;-45
2022/09/02 04:27:47;;;;;;;;;;;;;;;21.34;63.08;97071.34;181373;291;661490;-46
2022/09/02 04:28:49;;;;;;;;;;;;;;;21.33;63.08;97068.35;181312;291;663729;-46
2022/09/02 04:29:51;;;;;;;;;;;;;;;21.34;63.09;97074.67;181345;291;663475;-44
2022/09/02 04:30:53;;;;;;;;;;;;;;;21.33;63.09;97071.68;180649;291;661442;-44
2022/09/02 04:31:54;;;;;;;;;;;;;;;21.33;63.10;97066.98;181104;291;662513;-49
2022/09/02 04:32:56;;;;;;;;;;;;;;;21.33;63.10;97074.44;180979;291;664051;-42
2022/09/02 04:33:58;;;;;;;;;;;;;;;21.33;63.12;97073.87;181384;291;660236;-43
2022/09/02 04:35:00;;;;;;;;;;;;;;;21.33;63.11;97071.11;181187;291;662747;-45
2022/09/02 04:36:02;;;;;;;;;;;;;;;21.33;63.09;97072.48;181169;291;663805;-46
2022/09/02 04:37:04;;;;;;;;;;;;;;;21.32;63.08;97068.12;181110;291;662069;-44
2022/09/02 04:38:06;;;;;;;;;;;;;;;21.31;63.12;97073.39;181187;291;663035;-44
2022/09/02 04:39:08;;;;;;;;;;;;;;;21.32;63.13;97070.06;180857;291;662253;-47
2022/09/02 04:40:11;;;;;;;;;;;;;;;21.31;63.11;97071.20;181405;291;661707;-45
2022/09/02 04:41:13;;;;;;;;;;;;;;;21.31;63.12;97074.77;181352;291;664503;-46
2022/09/02 04:42:15;;;;;;;;;;;;;;;21.31;63.13;97069.83;181253;291;662374;-43
2022/09/02 04:43:17;;;;;;;;;;;;;;;21.31;63.11;97072.02;180993;291;662003;-45
2022/09/02 04:44:19;;;;;;;;;;;;;;;21.31;63.10;97076.16;181419;291;662291;-47
2022/09/02 04:45:20;;;;;;;;;;;;;;;21.31;63.10;97073.39;180793;291;662675;-45
2022/09/02 04:46:23;;;;;;;;;;;;;;;21.31;63.10;97074.77;181301;291;662714;-45
2022/09/02 04:47:25;;;;;;;;;;;;;;;21.30;63.10;97074.53;181046;291;661409;-45
2022/09/02 04:48:27;;;;;;;;;;;;;;;21.30;63.12;97071.78;181247;291;663416;-43
2022/09/02 04:49:30;;;;;;;;;;;;;;;21.30;63.13;97077.30;181260;291;660826;-48
2022/09/02 04:50:32;;;;;;;;;;;;;;;21.31;63.12;97072.02;181349;291;663287;-44
2022/09/02 04:51:34;;;;;;;;;;;;;;;21.31;63.11;97069.83;181360;291;661615;-43
2022/09/02 04:52:36;;;;;;;;;;;;;;;21.31;63.11;97075.34;181396;291;661935;-42
2022/09/02 04:53:38;;;;;;;;;;;;;;;21.31;63.12;97068.45;181357;291;663607;-45
2022/09/02 04:54:40;;;;;;;;;;;;;;;21.31;63.11;97075.34;181220;291;661869;-44
2022/09/02 04:55:42;;;;;;;;;;;;;;;21.31;63.12;97076.16;181379;291;662075;-43
2022/09/02 04:56:44;;;;;;;;;;;;;;;21.31;63.12;97078.91;181376;291;662425;-45
2022/09/02 04:57:46;;;;;;;;;;;;;;;21.30;63.13;97080.05;181395;291;663424;-42
2022/09/02 04:58:50;;;;;;;;;;;;;;;21.30;63.13;97074.53;180733;291;662229;-44
2022/09/02 04:59:52;;;;;;;;;;;;;;;21.30;63.13;97069.02;181394;291;662875;-43
2022/09/02 05:00:54;;;;;;;;;;;;;;;21.30;63.14;97073.73;181314;291;663048;-43
2022/09/02 05:01:56;;;;;;;;;;;;;;;21.30;63.12;97069.59;181376;291;660539;-46
2022/09/02 05:02:58;;;;;;;;;;;;;;;21.30;63.12;97067.64;181392;291;664025;-45
2022/09/02 05:04:01;;;;;;;;;;;;;;;21.28;63.12;97072.69;181366;291;662444;-44
2022/09/02 05:05:04;;;;;;;;;;;;;;;21.28;63.13;97074.06;181334;291;661712;-48
2022/09/02 05:06:06;;;;;;;;;;;;;;;21.29;63.13;97070.16;180677;291;660720;-44
2022/09/02 05:07:08;;;;;;;;;;;;;;;21.29;63.12;97075.68;181406;291;662420;-45
2022/09/02 05:08:11;;;;;;;;;;;;;;;21.28;63.13;97074.06;181398;291;661919;-45
2022/09/02 05:09:14;;;;;;;;;;;;;;;21.28;63.10;97079.58;181375;291;661218;-46
2022/09/02 05:10:16;;;;;;;;;;;;;;;21.28;63.10;97078.20;181250;291;661681;-44
2022/09/02 05:11:18;;;;;;;;;;;;;;;21.29;63.11;97073.49;181279;291;663403;-46
2022/09/02 05:12:20;;;;;;;;;;;;;;;21.30;63.11;97084.19;181327;291;663997;-44
2022/09/02 05:13:22;;;;;;;;;;;;;;;21.28;63.09;97078.20;181364;291;661962;-44
2022/09/02 05:14:24;;;;;;;;;;;;;;;21.28;63.09;97075.44;181306;291;660058;-46
2022/09/02 05:15:26;;;;;;;;;;;;;;;21.28;63.09;97076.02;181123;291;661626;-45
2022/09/02 05:16:28;;;;;;;;;;;;;;;21.29;63.11;97079.00;181299;291;663572;-48
2022/09/02 05:17:35;;;;;;;;;;;;;;;21.27;63.09;97071.07;180613;291;661485;-45
2022/09/02 05:18:34;;;;;;;;;;;;;;;21.29;63.09;97080.38;181303;291;631764;-48